Narsarsuaq, Greenland
Current Conditions -  °F | °C
As of 1:50 AM on Monday 20 Oct 2014 (Local Time) from BGGH Reporting Station
Few Clouds Few Clouds  
Wind Chill: 11°   Ceiling: Unl
Heat Index: 25°   Visibility: 6mi
Dew Point: 16°   Wind: 18mph
Humidity: 69%   Direction: 50°NE
Pressure: 29.88"   Gusts: NA
Location:  61.17°N, 45.43°W
Report Text: BGGH 200350Z AUTO 05016KT 9999NDV FEW190/// M04/M09 Q1012
Loading
Personal Weather Stations






























Interactive Weather Map
Tropical Storm Tracking
New forecast layout! Learn more

10-Day Weather Forecast

Advertisements
Track Severe Weather on mobile